Republic, Washington
Current Conditions -  °F | °C
As of 1:53 AM on Wednesday 26 Nov 2014 (Local Time) from KOMK Reporting Station
Haze Haze  
Wind Chill: 32°   Ceiling: 1600
Heat Index: 32°   Visibility: 1mi
Dew Point: 31°   Wind: 0mph
Humidity: 96%   Direction: NA
Pressure: 30.2"   Gusts: NA
Location:  48.65°N, 118.74°W
Report Text: KOMK 260953Z AUTO 00000KT 1SM UP BR SCT003 OVC016 00/M01 A3020 RMK AO2 UPB09SNB0854E09 SLP239 P0000 T00001006
Loading
Personal Weather Stations






























Interactive Weather Map New forecast layout! Learn more

10-Day Weather Forecast

Advertisements
Track Severe Weather on mobile